createdAt,value
2023-02-27T00:03:29.939Z,-0.50
2023-02-27T00:08:23.822Z,-0.50
2023-02-27T00:13:19.023Z,-0.60
2023-02-27T00:18:12.440Z,-0.60
2023-02-27T00:23:07.026Z,-0.60
2023-02-27T00:28:00.442Z,-0.50
2023-02-27T00:32:56.022Z,-0.50
2023-02-27T00:37:50.150Z,-0.60
2023-02-27T00:42:43.513Z,-0.60
2023-02-27T00:47:37.412Z,-0.60
2023-02-27T00:52:33.764Z,-0.60
2023-02-27T00:57:28.084Z,-0.60
2023-02-27T01:02:21.511Z,-0.60
2023-02-27T01:07:15.357Z,-0.60
2023-02-27T01:12:10.697Z,-0.60
2023-02-27T01:17:04.420Z,-0.50
2023-02-27T01:21:57.877Z,-0.50
2023-02-27T01:26:52.603Z,-0.50
2023-02-27T01:31:49.066Z,-0.50
2023-02-27T01:36:44.368Z,-0.60
2023-02-27T01:41:38.054Z,-0.60
2023-02-27T01:46:33.429Z,-0.60
2023-02-27T01:51:37.176Z,-0.60
2023-02-27T01:56:33.020Z,-0.60
2023-02-27T02:01:27.896Z,-0.60
2023-02-27T02:06:25.837Z,-0.70
2023-02-27T02:11:23.076Z,-0.70
2023-02-27T02:16:46.327Z,-0.70
2023-02-27T02:22:35.778Z,-0.70
2023-02-27T02:27:55.340Z,-0.70
2023-02-27T02:33:46.879Z,-0.70
2023-02-27T02:39:09.138Z,-0.70
2023-02-27T02:44:17.524Z,-0.70
2023-02-27T02:49:22.498Z,-0.60
2023-02-27T02:54:27.096Z,-0.60
2023-02-27T02:59:28.243Z,-0.70
2023-02-27T03:04:28.939Z,-0.60
2023-02-27T03:09:35.825Z,-0.50
2023-02-27T03:14:37.178Z,-0.50
2023-02-27T03:19:39.007Z,-0.50
2023-02-27T03:24:41.143Z,-0.50
2023-02-27T03:29:43.797Z,-0.50
2023-02-27T03:34:43.106Z,-0.50
2023-02-27T03:39:47.840Z,-0.50
2023-02-27T03:44:56.255Z,-0.50
2023-02-27T03:49:51.874Z,-0.40
2023-02-27T03:54:54.688Z,-0.50
2023-02-27T03:59:48.086Z,-0.60
2023-02-27T04:04:41.559Z,-0.70
2023-02-27T04:10:15.530Z,-0.70
2023-02-27T04:15:24.899Z,-0.60
2023-02-27T04:20:37.029Z,-0.60
2023-02-27T04:26:05.553Z,-0.70
2023-02-27T04:31:15.857Z,-0.70
2023-02-27T04:36:17.688Z,-0.70
2023-02-27T04:41:21.817Z,-0.70
2023-02-27T04:46:22.493Z,-0.70
2023-02-27T04:51:21.180Z,-0.80
2023-02-27T04:56:23.370Z,-0.70
2023-02-27T05:01:23.505Z,-0.70
2023-02-27T05:06:23.211Z,-0.70
2023-02-27T05:11:28.315Z,-0.70
2023-02-27T05:16:29.652Z,-0.80
2023-02-27T05:21:30.723Z,-0.80
2023-02-27T05:26:42.033Z,-0.80
2023-02-27T05:31:48.033Z,-0.80
2023-02-27T05:36:48.964Z,-0.80
2023-02-27T05:41:51.429Z,-0.80
2023-02-27T05:46:53.301Z,-0.80
2023-02-27T05:51:51.430Z,-0.80
2023-02-27T05:56:51.135Z,-0.80
2023-02-27T06:01:46.366Z,-0.80
2023-02-27T06:06:42.031Z,-0.70
2023-02-27T06:11:35.418Z,-0.70
2023-02-27T06:16:30.563Z,-0.70
2023-02-27T06:21:23.986Z,-0.80
2023-02-27T06:26:17.931Z,-0.70
2023-02-27T06:31:11.302Z,-0.70
2023-02-27T06:36:06.457Z,-0.60
2023-02-27T06:40:59.981Z,-0.60
2023-02-27T06:45:55.716Z,-0.60
2023-02-27T06:50:53.933Z,-0.50
2023-02-27T06:55:49.430Z,-0.50
2023-02-27T07:00:43.195Z,-0.50
2023-02-27T07:05:36.569Z,-0.40
2023-02-27T07:10:29.949Z,-0.50
2023-02-27T07:15:24.869Z,-0.50
2023-02-27T07:20:18.468Z,-0.40
2023-02-27T07:25:12.022Z,-0.30
2023-02-27T07:30:06.261Z,-0.30
2023-02-27T07:35:00.890Z,-0.30
2023-02-27T07:39:54.162Z,-0.30
2023-02-27T07:44:47.413Z,-0.20
2023-02-27T07:49:40.682Z,-0.10
2023-02-27T07:54:37.585Z,-0.10
2023-02-27T07:59:30.956Z,-0.10
2023-02-27T08:04:24.614Z,-0.10
2023-02-27T08:09:18.319Z,-0.10
2023-02-27T08:14:13.009Z,-0.10
2023-02-27T08:19:06.375Z,0.00
2023-02-27T08:23:59.890Z,0.00
2023-02-27T08:28:53.500Z,0.00
2023-02-27T08:33:49.628Z,0.10
2023-02-27T08:38:46.465Z,0.20
2023-02-27T08:43:39.734Z,0.10
2023-02-27T08:48:33.049Z,0.20
2023-02-27T08:53:28.343Z,0.20
2023-02-27T08:58:22.070Z,0.10
2023-02-27T09:03:16.623Z,0.20
2023-02-27T09:08:09.964Z,0.30
2023-02-27T09:13:04.635Z,0.40
2023-02-27T09:18:02.829Z,0.40
2023-02-27T09:22:56.237Z,0.50
2023-02-27T09:27:49.551Z,0.50
2023-02-27T09:32:44.277Z,0.70
2023-02-27T09:37:37.793Z,0.70
2023-02-27T09:42:42.153Z,0.70
2023-02-27T09:47:41.703Z,0.70
2023-02-27T09:52:38.908Z,0.70
2023-02-27T09:57:50.923Z,0.70
2023-02-27T10:02:57.477Z,0.70
2023-02-27T10:08:04.821Z,0.70
2023-02-27T10:13:37.615Z,0.80
2023-02-27T10:18:36.768Z,0.70
2023-02-27T10:23:42.380Z,0.70
2023-02-27T10:28:36.067Z,0.80
2023-02-27T10:33:37.156Z,0.70
2023-02-27T10:38:40.040Z,0.80
2023-02-27T10:43:33.416Z,0.80
2023-02-27T10:48:26.728Z,0.90
2023-02-27T10:53:23.083Z,0.90
2023-02-27T10:58:21.679Z,0.90
2023-02-27T11:03:22.987Z,0.90
2023-02-27T11:08:27.097Z,0.80
2023-02-27T11:13:26.168Z,0.80
2023-02-27T11:18:29.266Z,0.90
2023-02-27T11:23:26.406Z,0.90
2023-02-27T11:28:28.351Z,0.90
2023-02-27T11:33:22.954Z,0.90
2023-02-27T11:38:23.431Z,0.90
2023-02-27T11:43:22.749Z,0.90
2023-02-27T11:48:24.591Z,0.90
2023-02-27T11:54:10.931Z,1.00
2023-02-27T11:59:21.719Z,1.20
2023-02-27T12:04:25.910Z,1.10
2023-02-27T12:09:38.964Z,1.10
2023-02-27T12:14:50.179Z,1.10
2023-02-27T12:19:59.224Z,1.10
2023-02-27T12:25:01.531Z,1.10
2023-02-27T12:30:03.630Z,1.00
2023-02-27T12:35:06.546Z,1.20
2023-02-27T12:40:07.252Z,1.10
2023-02-27T12:45:43.885Z,1.10
2023-02-27T12:50:55.298Z,1.00
2023-02-27T12:55:55.930Z,0.90
2023-02-27T13:00:59.845Z,0.70
2023-02-27T13:06:07.471Z,0.60
2023-02-27T13:11:12.410Z,0.30
2023-02-27T13:16:16.418Z,0.30
2023-02-27T13:21:20.305Z,0.50
2023-02-27T13:26:21.846Z,0.50
2023-02-27T13:31:31.062Z,0.50
2023-02-27T13:36:33.180Z,0.40
2023-02-27T13:41:40.176Z,0.50
2023-02-27T13:46:35.176Z,0.60
2023-02-27T13:51:49.344Z,0.70
2023-02-27T13:56:46.973Z,0.70
2023-02-27T14:01:41.162Z,0.70
2023-02-27T14:06:43.023Z,0.70
2023-02-27T14:11:40.425Z,0.70
2023-02-27T14:17:07.169Z,0.80
2023-02-27T14:22:03.191Z,0.70
2023-02-27T14:26:59.002Z,0.70
2023-02-27T14:31:55.202Z,0.70
2023-02-27T14:36:53.638Z,0.80
2023-02-27T14:41:59.180Z,0.70
2023-02-27T14:46:56.894Z,0.60
2023-02-27T14:51:51.293Z,0.60
2023-02-27T14:56:55.924Z,0.60
2023-02-27T15:01:49.772Z,0.60
2023-02-27T15:06:48.777Z,0.70
2023-02-27T15:11:44.791Z,0.70
2023-02-27T15:16:43.020Z,0.70
2023-02-27T15:21:44.429Z,0.60
2023-02-27T15:26:41.565Z,0.60
2023-02-27T15:31:36.360Z,0.50
2023-02-27T15:36:33.357Z,0.50
2023-02-27T15:41:28.309Z,0.50
2023-02-27T15:46:21.998Z,0.40
2023-02-27T15:51:15.273Z,0.40
2023-02-27T15:56:14.011Z,0.30
2023-02-27T16:01:18.327Z,0.30
2023-02-27T16:06:17.865Z,0.30
2023-02-27T16:11:20.391Z,0.30
2023-02-27T16:16:35.369Z,0.30
2023-02-27T16:21:32.223Z,0.20
2023-02-27T16:26:31.788Z,0.20
2023-02-27T16:31:31.089Z,0.20
2023-02-27T16:36:27.253Z,0.20
2023-02-27T16:41:24.427Z,0.20
2023-02-27T16:46:21.091Z,0.20
2023-02-27T16:51:20.261Z,0.20
2023-02-27T16:56:13.786Z,0.20
2023-02-27T17:01:08.413Z,0.20
2023-02-27T17:06:03.890Z,0.20
2023-02-27T17:10:59.146Z,0.10
2023-02-27T17:15:52.463Z,0.10
2023-02-27T17:20:45.739Z,0.20
2023-02-27T17:25:40.969Z,0.10
2023-02-27T17:30:36.202Z,0.10
2023-02-27T17:35:30.224Z,0.10
2023-02-27T17:40:23.851Z,0.10
2023-02-27T17:45:17.376Z,0.20
2023-02-27T17:50:13.222Z,0.10
2023-02-27T17:55:08.639Z,0.00
2023-02-27T18:00:04.253Z,-0.10
2023-02-27T18:04:59.865Z,-0.10
2023-02-27T18:09:54.538Z,-0.20
2023-02-27T18:14:47.853Z,-0.20
2023-02-27T18:19:42.556Z,-0.10
2023-02-27T18:24:35.989Z,-0.10
2023-02-27T18:29:30.964Z,-0.20
2023-02-27T18:34:25.489Z,-0.20
2023-02-27T18:39:19.271Z,-0.30
2023-02-27T18:44:12.703Z,-0.30
2023-02-27T18:49:07.897Z,-0.30
2023-02-27T18:54:01.467Z,-0.40
2023-02-27T18:59:02.049Z,-0.40
2023-02-27T19:04:03.326Z,-0.40
2023-02-27T19:08:58.595Z,-0.40
2023-02-27T19:13:52.386Z,-0.40
2023-02-27T19:18:45.804Z,-0.40
2023-02-27T19:23:39.337Z,-0.30
2023-02-27T19:28:34.821Z,-0.30
2023-02-27T19:33:28.517Z,-0.40
2023-02-27T19:38:22.066Z,-0.40
2023-02-27T19:43:15.455Z,-0.40
2023-02-27T19:48:12.030Z,-0.40
2023-02-27T19:53:05.471Z,-0.30
2023-02-27T19:57:58.969Z,-0.40
2023-02-27T20:02:52.324Z,-0.40
2023-02-27T20:07:48.368Z,-0.40
2023-02-27T20:12:41.844Z,-0.40
2023-02-27T20:17:35.441Z,-0.40
2023-02-27T20:22:28.854Z,-0.40
2023-02-27T20:27:23.578Z,-0.40
2023-02-27T20:32:21.053Z,-0.40
2023-02-27T20:37:14.927Z,-0.30
2023-02-27T20:42:08.312Z,-0.40
2023-02-27T20:47:03.350Z,-0.40
2023-02-27T20:51:58.351Z,-0.40
2023-02-27T20:56:54.000Z,-0.40
2023-02-27T21:01:51.607Z,-0.30
2023-02-27T21:06:46.706Z,-0.40
2023-02-27T21:11:42.881Z,-0.50
2023-02-27T21:16:37.231Z,-0.40
2023-02-27T21:21:33.217Z,-0.50
2023-02-27T21:26:35.327Z,-0.50
2023-02-27T21:31:42.962Z,-0.50
2023-02-27T21:36:44.321Z,-0.70
2023-02-27T21:41:48.893Z,-0.60
2023-02-27T21:46:42.623Z,-0.60
2023-02-27T21:51:40.881Z,-0.60
2023-02-27T21:56:34.982Z,-0.50
2023-02-27T22:01:31.274Z,-0.50
2023-02-27T22:06:28.195Z,-0.50
2023-02-27T22:11:21.739Z,-0.50
2023-02-27T22:16:15.578Z,-0.50
2023-02-27T22:21:13.693Z,-0.40
2023-02-27T22:26:12.001Z,-0.40
2023-02-27T22:31:11.070Z,-0.50
2023-02-27T22:36:10.720Z,-0.50
2023-02-27T22:41:09.281Z,-0.50
2023-02-27T22:46:03.396Z,-0.40
2023-02-27T22:51:03.389Z,-0.40
2023-02-27T22:55:58.449Z,-0.50
2023-02-27T23:00:51.760Z,-0.60
2023-02-27T23:05:50.864Z,-0.50
2023-02-27T23:10:44.733Z,-0.50
2023-02-27T23:15:39.501Z,-0.50
2023-02-27T23:20:33.041Z,-0.40
2023-02-27T23:25:26.978Z,-0.40
2023-02-27T23:30:20.627Z,-0.40
2023-02-27T23:35:17.277Z,-0.40
2023-02-27T23:40:12.954Z,-0.40
2023-02-27T23:45:27.561Z,-0.50
2023-02-27T23:50:25.637Z,-0.40
2023-02-27T23:55:21.196Z,-0.50
